sensor_id;sensor_type;location;lat;lon;timestamp;temperature;humidity
6654;DHT22;3363;50.942;7.034;2023-08-07T00:00:11;14.40;99.90
6654;DHT22;3363;50.942;7.034;2023-08-07T00:02:46;14.30;99.90
6654;DHT22;3363;50.942;7.034;2023-08-07T00:05:14;14.10;99.90
6654;DHT22;3363;50.942;7.034;2023-08-07T00:07:42;14.20;99.90
6654;DHT22;3363;50.942;7.034;2023-08-07T00:10:08;14.40;99.90
6654;DHT22;3363;50.942;7.034;2023-08-07T00:12:35;14.70;99.90
6654;DHT22;3363;50.942;7.034;2023-08-07T00:15:02;14.50;99.90
6654;DHT22;3363;50.942;7.034;2023-08-07T00:17:29;14.20;99.90
6654;DHT22;3363;50.942;7.034;2023-08-07T00:19:55;14.30;99.90
6654;DHT22;3363;50.942;7.034;2023-08-07T00:22:23;14.40;99.90
6654;DHT22;3363;50.942;7.034;2023-08-07T00:24:51;14.40;99.90
6654;DHT22;3363;50.942;7.034;2023-08-07T00:27:18;14.40;99.90
6654;DHT22;3363;50.942;7.034;2023-08-07T00:29:44;14.20;99.90
6654;DHT22;3363;50.942;7.034;2023-08-07T00:32:11;13.90;99.90
6654;DHT22;3363;50.942;7.034;2023-08-07T00:34:38;14.10;99.90
6654;DHT22;3363;50.942;7.034;2023-08-07T00:37:04;14.10;99.90
6654;DHT22;3363;50.942;7.034;2023-08-07T00:39:32;14.30;99.90
6654;DHT22;3363;50.942;7.034;2023-08-07T00:41:59;14.10;99.90
6654;DHT22;3363;50.942;7.034;2023-08-07T00:44:26;14.10;99.90
6654;DHT22;3363;50.942;7.034;2023-08-07T00:46:52;14.20;99.90
6654;DHT22;3363;50.942;7.034;2023-08-07T00:49:20;14.30;99.90
6654;DHT22;3363;50.942;7.034;2023-08-07T00:51:47;14.20;99.90
6654;DHT22;3363;50.942;7.034;2023-08-07T00:54:14;14.40;99.90
6654;DHT22;3363;50.942;7.034;2023-08-07T00:56:43;14.10;99.90
6654;DHT22;3363;50.942;7.034;2023-08-07T00:59:09;13.90;99.90
6654;DHT22;3363;50.942;7.034;2023-08-07T01:01:36;14.10;99.90
6654;DHT22;3363;50.942;7.034;2023-08-07T01:04:03;14.20;99.90
6654;DHT22;3363;50.942;7.034;2023-08-07T01:06:30;14.00;99.90
6654;DHT22;3363;50.942;7.034;2023-08-07T01:08:56;14.30;99.90
6654;DHT22;3363;50.942;7.034;2023-08-07T01:11:24;14.40;99.90
6654;DHT22;3363;50.942;7.034;2023-08-07T01:13:59;14.30;99.90
6654;DHT22;3363;50.942;7.034;2023-08-07T01:16:28;14.10;99.90
6654;DHT22;3363;50.942;7.034;2023-08-07T01:18:58;14.10;99.90
6654;DHT22;3363;50.942;7.034;2023-08-07T01:21:26;14.40;99.90
6654;DHT22;3363;50.942;7.034;2023-08-07T01:23:54;14.30;99.90
6654;DHT22;3363;50.942;7.034;2023-08-07T01:26:21;14.20;99.90
6654;DHT22;3363;50.942;7.034;2023-08-07T01:28:50;13.80;99.90
6654;DHT22;3363;50.942;7.034;2023-08-07T01:31:18;14.10;99.90
6654;DHT22;3363;50.942;7.034;2023-08-07T01:33:47;13.80;99.90
6654;DHT22;3363;50.942;7.034;2023-08-07T01:36:15;14.20;99.90
6654;DHT22;3363;50.942;7.034;2023-08-07T01:38:43;14.00;99.90
6654;DHT22;3363;50.942;7.034;2023-08-07T01:41:11;13.60;99.90
6654;DHT22;3363;50.942;7.034;2023-08-07T01:43:38;14.10;99.90
6654;DHT22;3363;50.942;7.034;2023-08-07T01:46:04;14.20;99.90
6654;DHT22;3363;50.942;7.034;2023-08-07T01:48:32;14.00;99.90
6654;DHT22;3363;50.942;7.034;2023-08-07T01:50:58;14.00;99.90
6654;DHT22;3363;50.942;7.034;2023-08-07T01:53:25;14.10;99.90
6654;DHT22;3363;50.942;7.034;2023-08-07T01:55:53;13.90;99.90
6654;DHT22;3363;50.942;7.034;2023-08-07T01:58:21;13.90;99.90
6654;DHT22;3363;50.942;7.034;2023-08-07T02:00:48;14.00;99.90
6654;DHT22;3363;50.942;7.034;2023-08-07T02:03:15;14.00;99.90
6654;DHT22;3363;50.942;7.034;2023-08-07T02:05:41;14.00;99.90
6654;DHT22;3363;50.942;7.034;2023-08-07T02:08:11;14.00;99.90
6654;DHT22;3363;50.942;7.034;2023-08-07T02:10:37;13.70;99.90
6654;DHT22;3363;50.942;7.034;2023-08-07T02:13:04;14.00;99.90
6654;DHT22;3363;50.942;7.034;2023-08-07T02:15:32;14.10;99.90
6654;DHT22;3363;50.942;7.034;2023-08-07T02:17:58;13.80;99.90
6654;DHT22;3363;50.942;7.034;2023-08-07T02:20:25;13.70;99.90
6654;DHT22;3363;50.942;7.034;2023-08-07T02:22:52;13.90;99.90
6654;DHT22;3363;50.942;7.034;2023-08-07T02:25:18;14.00;99.90
6654;DHT22;3363;50.942;7.034;2023-08-07T02:27:45;13.90;99.90
6654;DHT22;3363;50.942;7.034;2023-08-07T02:30:12;14.10;99.90
6654;DHT22;3363;50.942;7.034;2023-08-07T02:32:40;13.80;99.90
6654;DHT22;3363;50.942;7.034;2023-08-07T02:35:07;13.80;99.90
6654;DHT22;3363;50.942;7.034;2023-08-07T02:37:34;13.90;99.90
6654;DHT22;3363;50.942;7.034;2023-08-07T02:40:01;14.10;99.90
6654;DHT22;3363;50.942;7.034;2023-08-07T02:42:28;13.90;99.90
6654;DHT22;3363;50.942;7.034;2023-08-07T02:44:54;14.00;99.90
6654;DHT22;3363;50.942;7.034;2023-08-07T02:47:21;14.00;99.90
6654;DHT22;3363;50.942;7.034;2023-08-07T02:49:49;13.90;99.90
6654;DHT22;3363;50.942;7.034;2023-08-07T02:52:15;14.10;99.90
6654;DHT22;3363;50.942;7.034;2023-08-07T02:54:42;13.90;99.90
6654;DHT22;3363;50.942;7.034;2023-08-07T02:57:09;13.90;99.90
6654;DHT22;3363;50.942;7.034;2023-08-07T02:59:35;13.60;99.90
6654;DHT22;3363;50.942;7.034;2023-08-07T03:02:02;13.80;99.90
6654;DHT22;3363;50.942;7.034;2023-08-07T03:04:29;13.70;99.90
6654;DHT22;3363;50.942;7.034;2023-08-07T03:06:57;13.60;99.90
6654;DHT22;3363;50.942;7.034;2023-08-07T03:09:23;13.90;99.90
6654;DHT22;3363;50.942;7.034;2023-08-07T03:11:50;13.80;99.90
6654;DHT22;3363;50.942;7.034;2023-08-07T03:14:17;13.90;99.90
6654;DHT22;3363;50.942;7.034;2023-08-07T03:16:44;13.80;99.90
6654;DHT22;3363;50.942;7.034;2023-08-07T03:19:11;13.80;99.90
6654;DHT22;3363;50.942;7.034;2023-08-07T03:21:38;13.70;99.90
6654;DHT22;3363;50.942;7.034;2023-08-07T03:24:06;13.80;99.90
6654;DHT22;3363;50.942;7.034;2023-08-07T03:26:33;13.40;99.90
6654;DHT22;3363;50.942;7.034;2023-08-07T03:29:00;13.10;99.90
6654;DHT22;3363;50.942;7.034;2023-08-07T03:31:26;13.80;99.90
6654;DHT22;3363;50.942;7.034;2023-08-07T03:33:53;13.90;99.90
6654;DHT22;3363;50.942;7.034;2023-08-07T03:36:19;13.70;99.90
6654;DHT22;3363;50.942;7.034;2023-08-07T03:38:46;13.50;99.90
6654;DHT22;3363;50.942;7.034;2023-08-07T03:41:14;13.70;99.90
6654;DHT22;3363;50.942;7.034;2023-08-07T03:43:41;13.80;99.90
6654;DHT22;3363;50.942;7.034;2023-08-07T03:46:07;13.90;99.90
6654;DHT22;3363;50.942;7.034;2023-08-07T03:48:34;13.90;99.90
6654;DHT22;3363;50.942;7.034;2023-08-07T03:51:04;14.00;99.90
6654;DHT22;3363;50.942;7.034;2023-08-07T03:53:31;14.10;99.90
6654;DHT22;3363;50.942;7.034;2023-08-07T03:55:58;13.90;99.90
6654;DHT22;3363;50.942;7.034;2023-08-07T03:58:26;13.80;99.90
6654;DHT22;3363;50.942;7.034;2023-08-07T04:00:53;13.60;99.90
6654;DHT22;3363;50.942;7.034;2023-08-07T04:03:20;13.70;99.90
6654;DHT22;3363;50.942;7.034;2023-08-07T04:05:47;13.70;99.90
6654;DHT22;3363;50.942;7.034;2023-08-07T04:08:17;13.60;99.90
6654;DHT22;3363;50.942;7.034;2023-08-07T04:10:44;13.70;99.90
6654;DHT22;3363;50.942;7.034;2023-08-07T04:13:11;13.70;99.90
6654;DHT22;3363;50.942;7.034;2023-08-07T04:15:39;13.80;99.90
6654;DHT22;3363;50.942;7.034;2023-08-07T04:18:05;13.70;99.90
6654;DHT22;3363;50.942;7.034;2023-08-07T04:20:33;13.70;99.90
6654;DHT22;3363;50.942;7.034;2023-08-07T04:23:00;13.60;99.90
6654;DHT22;3363;50.942;7.034;2023-08-07T04:25:26;13.60;99.90
6654;DHT22;3363;50.942;7.034;2023-08-07T04:27:53;13.50;99.90
6654;DHT22;3363;50.942;7.034;2023-08-07T04:30:20;13.40;99.90
6654;DHT22;3363;50.942;7.034;2023-08-07T04:32:48;13.40;99.90
6654;DHT22;3363;50.942;7.034;2023-08-07T04:35:15;13.70;99.90
6654;DHT22;3363;50.942;7.034;2023-08-07T04:37:41;13.90;99.90
6654;DHT22;3363;50.942;7.034;2023-08-07T04:40:09;13.90;99.90
6654;DHT22;3363;50.942;7.034;2023-08-07T04:42:36;13.80;99.90
6654;DHT22;3363;50.942;7.034;2023-08-07T04:45:03;13.40;99.90
6654;DHT22;3363;50.942;7.034;2023-08-07T04:47:29;13.60;99.90
6654;DHT22;3363;50.942;7.034;2023-08-07T04:49:57;13.80;99.90
6654;DHT22;3363;50.942;7.034;2023-08-07T04:52:24;13.60;99.90
6654;DHT22;3363;50.942;7.034;2023-08-07T04:54:50;13.70;99.90
6654;DHT22;3363;50.942;7.034;2023-08-07T04:57:17;13.60;99.90
6654;DHT22;3363;50.942;7.034;2023-08-07T04:59:44;13.70;99.90
6654;DHT22;3363;50.942;7.034;2023-08-07T05:02:10;13.60;99.90
6654;DHT22;3363;50.942;7.034;2023-08-07T05:04:37;13.60;99.90
6654;DHT22;3363;50.942;7.034;2023-08-07T05:07:05;13.80;99.90
6654;DHT22;3363;50.942;7.034;2023-08-07T05:09:32;13.80;99.90
6654;DHT22;3363;50.942;7.034;2023-08-07T05:11:58;13.60;99.90
6654;DHT22;3363;50.942;7.034;2023-08-07T05:14:25;13.80;99.90
6654;DHT22;3363;50.942;7.034;2023-08-07T05:16:52;13.70;99.90
6654;DHT22;3363;50.942;7.034;2023-08-07T05:19:18;13.70;99.90
6654;DHT22;3363;50.942;7.034;2023-08-07T05:21:45;13.70;99.90
6654;DHT22;3363;50.942;7.034;2023-08-07T05:24:16;13.70;99.90
6654;DHT22;3363;50.942;7.034;2023-08-07T05:26:43;13.70;99.90
6654;DHT22;3363;50.942;7.034;2023-08-07T05:29:09;13.80;99.90
6654;DHT22;3363;50.942;7.034;2023-08-07T05:31:36;13.80;99.90
6654;DHT22;3363;50.942;7.034;2023-08-07T05:34:03;13.90;99.90
6654;DHT22;3363;50.942;7.034;2023-08-07T05:36:29;14.00;99.90
6654;DHT22;3363;50.942;7.034;2023-08-07T05:38:58;14.00;99.90
6654;DHT22;3363;50.942;7.034;2023-08-07T05:50:59;14.30;99.90
6654;DHT22;3363;50.942;7.034;2023-08-07T05:53:26;14.00;99.90
6654;DHT22;3363;50.942;7.034;2023-08-07T05:55:52;14.00;99.90
6654;DHT22;3363;50.942;7.034;2023-08-07T05:58:19;14.10;99.90
6654;DHT22;3363;50.942;7.034;2023-08-07T06:00:46;14.10;99.90
6654;DHT22;3363;50.942;7.034;2023-08-07T06:03:14;14.20;99.90
6654;DHT22;3363;50.942;7.034;2023-08-07T06:05:40;14.20;99.90
6654;DHT22;3363;50.942;7.034;2023-08-07T06:08:07;14.20;99.90
6654;DHT22;3363;50.942;7.034;2023-08-07T06:10:34;14.10;99.90
6654;DHT22;3363;50.942;7.034;2023-08-07T06:13:00;14.20;99.90
6654;DHT22;3363;50.942;7.034;2023-08-07T06:15:27;14.10;99.90
6654;DHT22;3363;50.942;7.034;2023-08-07T06:17:55;14.10;99.90
6654;DHT22;3363;50.942;7.034;2023-08-07T06:20:23;14.10;99.90
6654;DHT22;3363;50.942;7.034;2023-08-07T06:22:50;14.20;99.90
6654;DHT22;3363;50.942;7.034;2023-08-07T06:25:17;14.20;99.90
6654;DHT22;3363;50.942;7.034;2023-08-07T06:27:45;14.20;99.90
6654;DHT22;3363;50.942;7.034;2023-08-07T06:30:12;14.10;99.90
6654;DHT22;3363;50.942;7.034;2023-08-07T06:32:39;14.10;99.90
6654;DHT22;3363;50.942;7.034;2023-08-07T06:35:06;14.20;99.90
6654;DHT22;3363;50.942;7.034;2023-08-07T06:37:34;14.00;99.90
6654;DHT22;3363;50.942;7.034;2023-08-07T06:40:01;14.20;99.90
6654;DHT22;3363;50.942;7.034;2023-08-07T06:42:28;14.20;99.90
6654;DHT22;3363;50.942;7.034;2023-08-07T06:44:54;14.30;99.90
6654;DHT22;3363;50.942;7.034;2023-08-07T06:47:21;14.30;99.90
6654;DHT22;3363;50.942;7.034;2023-08-07T06:49:48;14.20;99.90
6654;DHT22;3363;50.942;7.034;2023-08-07T06:52:14;14.20;99.90
6654;DHT22;3363;50.942;7.034;2023-08-07T06:54:42;14.30;99.90
6654;DHT22;3363;50.942;7.034;2023-08-07T06:57:09;14.10;99.90
6654;DHT22;3363;50.942;7.034;2023-08-07T06:59:36;14.00;99.90
6654;DHT22;3363;50.942;7.034;2023-08-07T07:02:03;14.00;99.90
6654;DHT22;3363;50.942;7.034;2023-08-07T07:04:30;14.10;99.90
6654;DHT22;3363;50.942;7.034;2023-08-07T07:06:57;14.00;99.90
6654;DHT22;3363;50.942;7.034;2023-08-07T07:09:24;14.00;99.90
6654;DHT22;3363;50.942;7.034;2023-08-07T07:11:55;14.00;99.90
6654;DHT22;3363;50.942;7.034;2023-08-07T07:14:22;14.00;99.90
6654;DHT22;3363;50.942;7.034;2023-08-07T07:16:48;14.00;99.90
6654;DHT22;3363;50.942;7.034;2023-08-07T07:19:15;13.90;99.90
6654;DHT22;3363;50.942;7.034;2023-08-07T07:21:41;14.00;99.90
6654;DHT22;3363;50.942;7.034;2023-08-07T07:24:08;14.00;99.90
6654;DHT22;3363;50.942;7.034;2023-08-07T07:26:35;14.20;99.90
6654;DHT22;3363;50.942;7.034;2023-08-07T07:29:03;14.20;99.90
6654;DHT22;3363;50.942;7.034;2023-08-07T07:31:30;14.10;99.90
6654;DHT22;3363;50.942;7.034;2023-08-07T07:33:56;14.10;99.90
6654;DHT22;3363;50.942;7.034;2023-08-07T07:36:23;14.00;99.90
6654;DHT22;3363;50.942;7.034;2023-08-07T07:38:49;14.00;99.90
6654;DHT22;3363;50.942;7.034;2023-08-07T07:41:16;13.90;99.90
6654;DHT22;3363;50.942;7.034;2023-08-07T07:43:44;14.00;99.90
6654;DHT22;3363;50.942;7.034;2023-08-07T07:46:12;14.00;99.90
6654;DHT22;3363;50.942;7.034;2023-08-07T07:48:38;14.10;99.90
6654;DHT22;3363;50.942;7.034;2023-08-07T07:51:05;14.00;99.90
6654;DHT22;3363;50.942;7.034;2023-08-07T07:53:31;14.10;99.90
6654;DHT22;3363;50.942;7.034;2023-08-07T07:55:58;14.10;99.90
6654;DHT22;3363;50.942;7.034;2023-08-07T07:58:25;14.00;99.90
6654;DHT22;3363;50.942;7.034;2023-08-07T08:00:52;14.00;99.90
6654;DHT22;3363;50.942;7.034;2023-08-07T08:03:20;14.10;99.90
6654;DHT22;3363;50.942;7.034;2023-08-07T08:05:49;14.10;99.90
6654;DHT22;3363;50.942;7.034;2023-08-07T08:08:16;14.20;99.90
6654;DHT22;3363;50.942;7.034;2023-08-07T08:10:43;14.10;99.90
6654;DHT22;3363;50.942;7.034;2023-08-07T08:13:09;14.10;99.90
6654;DHT22;3363;50.942;7.034;2023-08-07T08:15:36;14.00;99.90
6654;DHT22;3363;50.942;7.034;2023-08-07T08:18:03;14.00;99.90
6654;DHT22;3363;50.942;7.034;2023-08-07T08:20:31;14.10;99.90
6654;DHT22;3363;50.942;7.034;2023-08-07T08:22:58;14.10;99.90
6654;DHT22;3363;50.942;7.034;2023-08-07T08:25:25;14.20;99.90
6654;DHT22;3363;50.942;7.034;2023-08-07T08:27:51;14.20;99.90
6654;DHT22;3363;50.942;7.034;2023-08-07T08:30:18;14.20;99.90
6654;DHT22;3363;50.942;7.034;2023-08-07T08:32:44;14.30;99.90
6654;DHT22;3363;50.942;7.034;2023-08-07T08:35:11;14.20;99.90
6654;DHT22;3363;50.942;7.034;2023-08-07T08:37:39;14.20;99.90
6654;DHT22;3363;50.942;7.034;2023-08-07T08:40:06;14.20;99.90
6654;DHT22;3363;50.942;7.034;2023-08-07T08:42:37;14.20;99.90
6654;DHT22;3363;50.942;7.034;2023-08-07T08:45:05;14.10;99.90
6654;DHT22;3363;50.942;7.034;2023-08-07T08:47:32;14.10;99.90
6654;DHT22;3363;50.942;7.034;2023-08-07T08:50:00;14.20;99.90
6654;DHT22;3363;50.942;7.034;2023-08-07T08:52:28;14.20;99.90
6654;DHT22;3363;50.942;7.034;2023-08-07T08:54:56;14.20;99.90
6654;DHT22;3363;50.942;7.034;2023-08-07T08:57:23;14.30;99.90
6654;DHT22;3363;50.942;7.034;2023-08-07T08:59:50;14.30;99.90
6654;DHT22;3363;50.942;7.034;2023-08-07T09:02:17;14.30;99.90
6654;DHT22;3363;50.942;7.034;2023-08-07T09:04:45;14.30;99.90
6654;DHT22;3363;50.942;7.034;2023-08-07T09:07:12;14.40;99.90
6654;DHT22;3363;50.942;7.034;2023-08-07T09:09:40;14.40;99.90
6654;DHT22;3363;50.942;7.034;2023-08-07T09:12:09;14.40;99.90
6654;DHT22;3363;50.942;7.034;2023-08-07T09:14:37;14.40;99.90
6654;DHT22;3363;50.942;7.034;2023-08-07T09:17:05;14.40;99.90
6654;DHT22;3363;50.942;7.034;2023-08-07T09:19:32;14.40;99.90
6654;DHT22;3363;50.942;7.034;2023-08-07T09:21:59;14.40;99.90
6654;DHT22;3363;50.942;7.034;2023-08-07T09:24:25;14.30;99.90
6654;DHT22;3363;50.942;7.034;2023-08-07T09:26:52;14.40;99.90
6654;DHT22;3363;50.942;7.034;2023-08-07T09:29:21;14.40;99.90
6654;DHT22;3363;50.942;7.034;2023-08-07T09:31:48;14.30;99.90
6654;DHT22;3363;50.942;7.034;2023-08-07T09:34:15;14.40;99.90
6654;DHT22;3363;50.942;7.034;2023-08-07T09:36:45;14.40;99.90
6654;DHT22;3363;50.942;7.034;2023-08-07T09:39:12;14.40;99.90
6654;DHT22;3363;50.942;7.034;2023-08-07T09:41:40;14.30;99.90
6654;DHT22;3363;50.942;7.034;2023-08-07T09:44:07;14.40;99.90
6654;DHT22;3363;50.942;7.034;2023-08-07T09:46:41;14.40;99.90
6654;DHT22;3363;50.942;7.034;2023-08-07T09:49:08;14.40;99.90
6654;DHT22;3363;50.942;7.034;2023-08-07T09:51:41;14.40;99.90
6654;DHT22;3363;50.942;7.034;2023-08-07T09:54:07;14.50;99.90
6654;DHT22;3363;50.942;7.034;2023-08-07T09:56:34;14.60;99.90
6654;DHT22;3363;50.942;7.034;2023-08-07T09:59:01;14.60;99.90
6654;DHT22;3363;50.942;7.034;2023-08-07T10:01:28;14.60;99.90
6654;DHT22;3363;50.942;7.034;2023-08-07T10:03:56;14.60;99.90
6654;DHT22;3363;50.942;7.034;2023-08-07T10:06:23;14.60;99.90
6654;DHT22;3363;50.942;7.034;2023-08-07T10:08:51;14.70;99.90
6654;DHT22;3363;50.942;7.034;2023-08-07T10:11:18;14.80;99.90
6654;DHT22;3363;50.942;7.034;2023-08-07T10:13:45;14.90;99.90
6654;DHT22;3363;50.942;7.034;2023-08-07T10:16:11;14.90;99.90
6654;DHT22;3363;50.942;7.034;2023-08-07T10:18:38;15.00;99.90
6654;DHT22;3363;50.942;7.034;2023-08-07T10:21:06;15.00;99.90
6654;DHT22;3363;50.942;7.034;2023-08-07T10:23:33;15.00;99.90
6654;DHT22;3363;50.942;7.034;2023-08-07T10:26:01;15.00;99.90
6654;DHT22;3363;50.942;7.034;2023-08-07T10:28:28;15.00;99.90
6654;DHT22;3363;50.942;7.034;2023-08-07T10:30:55;15.10;99.90
6654;DHT22;3363;50.942;7.034;2023-08-07T10:33:22;15.10;99.90
6654;DHT22;3363;50.942;7.034;2023-08-07T10:35:51;15.40;99.90
6654;DHT22;3363;50.942;7.034;2023-08-07T10:38:22;15.70;99.90
6654;DHT22;3363;50.942;7.034;2023-08-07T10:40:58;16.00;99.90
6654;DHT22;3363;50.942;7.034;2023-08-07T10:43:25;16.00;99.90
6654;DHT22;3363;50.942;7.034;2023-08-07T10:45:53;16.10;99.90
6654;DHT22;3363;50.942;7.034;2023-08-07T10:48:20;16.00;99.90
6654;DHT22;3363;50.942;7.034;2023-08-07T10:50:49;15.90;99.60
6654;DHT22;3363;50.942;7.034;2023-08-07T10:53:20;15.80;96.50
6654;DHT22;3363;50.942;7.034;2023-08-07T10:55:47;15.90;99.80
6654;DHT22;3363;50.942;7.034;2023-08-07T10:58:23;16.00;97.40
6654;DHT22;3363;50.942;7.034;2023-08-07T11:00:50;16.00;99.90
6654;DHT22;3363;50.942;7.034;2023-08-07T11:03:20;16.20;99.40
6654;DHT22;3363;50.942;7.034;2023-08-07T11:05:46;16.40;91.10
6654;DHT22;3363;50.942;7.034;2023-08-07T11:08:13;16.40;88.50
6654;DHT22;3363;50.942;7.034;2023-08-07T11:10:41;16.50;90.90
6654;DHT22;3363;50.942;7.034;2023-08-07T11:13:07;16.40;90.30
6654;DHT22;3363;50.942;7.034;2023-08-07T11:15:34;16.30;82.30
6654;DHT22;3363;50.942;7.034;2023-08-07T11:18:01;16.20;86.80
6654;DHT22;3363;50.942;7.034;2023-08-07T11:20:27;16.30;86.90
6654;DHT22;3363;50.942;7.034;2023-08-07T11:22:54;16.50;82.70
6654;DHT22;3363;50.942;7.034;2023-08-07T11:25:21;16.60;82.00
6654;DHT22;3363;50.942;7.034;2023-08-07T11:27:49;16.80;80.70
6654;DHT22;3363;50.942;7.034;2023-08-07T11:30:15;16.90;78.10
6654;DHT22;3363;50.942;7.034;2023-08-07T11:32:42;16.70;74.80
6654;DHT22;3363;50.942;7.034;2023-08-07T11:35:08;16.50;74.10
6654;DHT22;3363;50.942;7.034;2023-08-07T11:37:35;16.70;72.50
6654;DHT22;3363;50.942;7.034;2023-08-07T11:40:02;16.70;75.30
6654;DHT22;3363;50.942;7.034;2023-08-07T11:42:29;16.60;77.10
6654;DHT22;3363;50.942;7.034;2023-08-07T11:44:57;16.50;72.90
6654;DHT22;3363;50.942;7.034;2023-08-07T11:47:23;16.40;75.40
6654;DHT22;3363;50.942;7.034;2023-08-07T11:49:51;16.30;72.10
6654;DHT22;3363;50.942;7.034;2023-08-07T11:52:18;16.50;75.90
6654;DHT22;3363;50.942;7.034;2023-08-07T11:54:46;16.60;73.80
6654;DHT22;3363;50.942;7.034;2023-08-07T11:57:16;16.80;74.20
6654;DHT22;3363;50.942;7.034;2023-08-07T11:59:46;17.10;70.00
6654;DHT22;3363;50.942;7.034;2023-08-07T12:02:15;17.30;71.50
6654;DHT22;3363;50.942;7.034;2023-08-07T12:04:41;17.30;68.10
6654;DHT22;3363;50.942;7.034;2023-08-07T12:07:08;17.40;67.00
6654;DHT22;3363;50.942;7.034;2023-08-07T12:09:36;17.60;65.40
6654;DHT22;3363;50.942;7.034;2023-08-07T12:12:03;17.40;65.30
6654;DHT22;3363;50.942;7.034;2023-08-07T12:14:30;17.20;67.00
6654;DHT22;3363;50.942;7.034;2023-08-07T12:16:56;17.10;65.80
6654;DHT22;3363;50.942;7.034;2023-08-07T12:19:25;17.20;65.10
6654;DHT22;3363;50.942;7.034;2023-08-07T12:22:01;17.40;67.00
6654;DHT22;3363;50.942;7.034;2023-08-07T12:24:29;17.50;65.60
6654;DHT22;3363;50.942;7.034;2023-08-07T12:26:56;17.60;62.40
6654;DHT22;3363;50.942;7.034;2023-08-07T12:29:22;17.80;63.50
6654;DHT22;3363;50.942;7.034;2023-08-07T12:31:54;17.90;63.40
6654;DHT22;3363;50.942;7.034;2023-08-07T12:34:20;18.00;62.40
6654;DHT22;3363;50.942;7.034;2023-08-07T12:36:48;17.80;64.10
6654;DHT22;3363;50.942;7.034;2023-08-07T12:39:15;17.90;62.80
6654;DHT22;3363;50.942;7.034;2023-08-07T12:41:42;18.00;61.30
6654;DHT22;3363;50.942;7.034;2023-08-07T12:44:08;18.10;61.20
6654;DHT22;3363;50.942;7.034;2023-08-07T12:46:35;18.10;59.70
6654;DHT22;3363;50.942;7.034;2023-08-07T12:49:03;18.20;59.10
6654;DHT22;3363;50.942;7.034;2023-08-07T12:51:30;18.10;59.20
6654;DHT22;3363;50.942;7.034;2023-08-07T12:53:58;18.20;59.00
6654;DHT22;3363;50.942;7.034;2023-08-07T12:56:24;18.00;59.60
6654;DHT22;3363;50.942;7.034;2023-08-07T12:58:51;17.80;57.70
6654;DHT22;3363;50.942;7.034;2023-08-07T13:01:17;17.70;59.60
6654;DHT22;3363;50.942;7.034;2023-08-07T13:03:44;17.80;59.70
6654;DHT22;3363;50.942;7.034;2023-08-07T13:06:11;17.90;58.50
6654;DHT22;3363;50.942;7.034;2023-08-07T13:08:37;18.10;60.00
6654;DHT22;3363;50.942;7.034;2023-08-07T13:11:05;18.00;56.60
6654;DHT22;3363;50.942;7.034;2023-08-07T13:13:32;18.00;58.60
6654;DHT22;3363;50.942;7.034;2023-08-07T13:15:58;17.90;57.40
6654;DHT22;3363;50.942;7.034;2023-08-07T13:18:25;17.80;57.00
6654;DHT22;3363;50.942;7.034;2023-08-07T13:20:52;17.60;57.90
6654;DHT22;3363;50.942;7.034;2023-08-07T13:23:18;17.60;58.20
6654;DHT22;3363;50.942;7.034;2023-08-07T13:25:45;17.80;57.40
6654;DHT22;3363;50.942;7.034;2023-08-07T13:28:13;18.00;57.80
6654;DHT22;3363;50.942;7.034;2023-08-07T13:30:40;18.20;57.50
6654;DHT22;3363;50.942;7.034;2023-08-07T13:33:06;18.30;54.30
6654;DHT22;3363;50.942;7.034;2023-08-07T13:35:33;18.50;52.40
6654;DHT22;3363;50.942;7.034;2023-08-07T13:38:00;18.50;55.20
6654;DHT22;3363;50.942;7.034;2023-08-07T13:40:30;18.70;54.50
6654;DHT22;3363;50.942;7.034;2023-08-07T13:42:57;18.80;52.10
6654;DHT22;3363;50.942;7.034;2023-08-07T13:45:25;18.80;53.80
6654;DHT22;3363;50.942;7.034;2023-08-07T13:47:52;18.80;53.00
6654;DHT22;3363;50.942;7.034;2023-08-07T13:50:19;19.00;53.10
6654;DHT22;3363;50.942;7.034;2023-08-07T13:52:45;19.10;51.50
6654;DHT22;3363;50.942;7.034;2023-08-07T13:55:12;19.20;53.80
6654;DHT22;3363;50.942;7.034;2023-08-07T13:57:38;19.10;53.00
6654;DHT22;3363;50.942;7.034;2023-08-07T14:00:06;19.10;51.30
6654;DHT22;3363;50.942;7.034;2023-08-07T14:02:35;19.00;52.80
6654;DHT22;3363;50.942;7.034;2023-08-07T14:05:01;19.10;52.20
6654;DHT22;3363;50.942;7.034;2023-08-07T14:07:28;18.90;52.40
6654;DHT22;3363;50.942;7.034;2023-08-07T14:09:55;19.10;51.50
6654;DHT22;3363;50.942;7.034;2023-08-07T14:12:21;19.30;52.30
6654;DHT22;3363;50.942;7.034;2023-08-07T14:14:48;19.40;52.10
6654;DHT22;3363;50.942;7.034;2023-08-07T14:17:15;19.20;52.80
6654;DHT22;3363;50.942;7.034;2023-08-07T14:19:43;19.10;52.70
6654;DHT22;3363;50.942;7.034;2023-08-07T14:22:09;19.10;53.40
6654;DHT22;3363;50.942;7.034;2023-08-07T14:24:36;19.30;53.80
6654;DHT22;3363;50.942;7.034;2023-08-07T14:27:03;19.30;52.30
6654;DHT22;3363;50.942;7.034;2023-08-07T14:29:30;19.00;53.30
6654;DHT22;3363;50.942;7.034;2023-08-07T14:31:56;18.70;54.50
6654;DHT22;3363;50.942;7.034;2023-08-07T14:34:23;18.60;54.10
6654;DHT22;3363;50.942;7.034;2023-08-07T14:36:51;18.50;54.30
6654;DHT22;3363;50.942;7.034;2023-08-07T14:39:19;18.40;55.10
6654;DHT22;3363;50.942;7.034;2023-08-07T14:41:46;18.30;55.60
6654;DHT22;3363;50.942;7.034;2023-08-07T14:44:13;18.20;55.80
6654;DHT22;3363;50.942;7.034;2023-08-07T14:46:40;17.70;63.90
6654;DHT22;3363;50.942;7.034;2023-08-07T14:49:07;17.60;64.70
6654;DHT22;3363;50.942;7.034;2023-08-07T14:51:34;17.60;67.10
6654;DHT22;3363;50.942;7.034;2023-08-07T14:54:02;17.80;72.00
6654;DHT22;3363;50.942;7.034;2023-08-07T14:56:28;18.10;69.50
6654;DHT22;3363;50.942;7.034;2023-08-07T14:58:55;18.30;69.30
6654;DHT22;3363;50.942;7.034;2023-08-07T15:01:21;18.40;65.70
6654;DHT22;3363;50.942;7.034;2023-08-07T15:03:48;18.40;65.60
6654;DHT22;3363;50.942;7.034;2023-08-07T15:06:15;18.60;62.70
6654;DHT22;3363;50.942;7.034;2023-08-07T15:08:41;18.60;64.40
6654;DHT22;3363;50.942;7.034;2023-08-07T15:11:10;18.50;63.10
6654;DHT22;3363;50.942;7.034;2023-08-07T15:13:37;18.50;64.30
6654;DHT22;3363;50.942;7.034;2023-08-07T15:16:05;18.40;63.20
6654;DHT22;3363;50.942;7.034;2023-08-07T15:18:31;18.40;62.40
6654;DHT22;3363;50.942;7.034;2023-08-07T15:20:58;18.40;61.90
6654;DHT22;3363;50.942;7.034;2023-08-07T15:23:26;18.40;61.90
6654;DHT22;3363;50.942;7.034;2023-08-07T15:25:52;18.40;61.90
6654;DHT22;3363;50.942;7.034;2023-08-07T15:28:20;18.50;63.40
6654;DHT22;3363;50.942;7.034;2023-08-07T15:30:47;18.50;60.60
6654;DHT22;3363;50.942;7.034;2023-08-07T15:33:14;18.50;61.00
6654;DHT22;3363;50.942;7.034;2023-08-07T15:35:41;18.50;60.80
6654;DHT22;3363;50.942;7.034;2023-08-07T15:38:08;18.40;61.40
6654;DHT22;3363;50.942;7.034;2023-08-07T15:40:36;18.30;59.70
6654;DHT22;3363;50.942;7.034;2023-08-07T15:43:03;18.40;61.40
6654;DHT22;3363;50.942;7.034;2023-08-07T15:45:31;18.40;61.70
6654;DHT22;3363;50.942;7.034;2023-08-07T15:47:57;18.40;61.40
6654;DHT22;3363;50.942;7.034;2023-08-07T15:50:24;18.40;62.20
6654;DHT22;3363;50.942;7.034;2023-08-07T15:52:51;18.50;62.00
6654;DHT22;3363;50.942;7.034;2023-08-07T15:55:17;18.50;62.30
6654;DHT22;3363;50.942;7.034;2023-08-07T15:57:44;18.50;64.10
6654;DHT22;3363;50.942;7.034;2023-08-07T16:00:12;18.40;62.60
6654;DHT22;3363;50.942;7.034;2023-08-07T16:02:40;18.40;62.20
6654;DHT22;3363;50.942;7.034;2023-08-07T16:05:07;18.40;62.80
6654;DHT22;3363;50.942;7.034;2023-08-07T16:07:34;18.40;62.40
6654;DHT22;3363;50.942;7.034;2023-08-07T16:10:01;18.40;62.20